Celine — HBEF — position and weather

sailwx.info

Track history (hours):
 
Tides and Currents Weather Stations Pressure Air Temp Water Temp Dewpoint Dewpoint Depression Visibility Wind Speed Wind Dir Waves Ship Positions

Celine

Last reported at 2014-Oct-21 03:31 UTC. Time now 2014-Oct-21 03:56 UTC.
Position N 54°38' E 019°55'.

Length 129 m; draft 4.9 m.

Type: Cargo ship. MMSI: 269057000.

Date/timePositionNaut miles runAvg speedWind from/ knotsBaromVisibWave heightAir tempDewpointWater temp
2014-Oct-21 03:31N 54°38' E 019°55'0 0.0
2014-Oct-21 02:31N 54°38' E 019°55'0 0.0
2014-Oct-21 01:31N 54°38' E 019°55'0 0.0
2014-Oct-21 00:28N 54°38' E 019°55'0 0.0
2014-Oct-20 23:31N 54°38' E 019°55'0 0.0
2014-Oct-20 22:31N 54°38' E 019°55'0 0.0
2014-Oct-20 21:30N 54°38' E 019°55'0 0.0
2014-Oct-20 20:31N 54°38' E 019°55'2 1.8
2014-Oct-20 19:09N 54°39' E 019°51'2 3.1
2014-Oct-20 18:29N 54°40' E 019°48'1 0.7
2014-Oct-20 17:33N 54°39' E 019°49'0 0.0
2014-Oct-20 16:33N 54°39' E 019°49'0 0.0
2014-Oct-20 15:33N 54°39' E 019°49'0 0.0
2014-Oct-20 14:33N 54°39' E 019°49'0 0.1
2014-Oct-20 13:33N 54°39' E 019°49'0 0.0
2014-Oct-20 12:27N 54°39' E 019°49'0 0.1
2014-Oct-20 11:33N 54°39' E 019°49'0 0.0
2014-Oct-20 10:33N 54°39' E 019°49'0 0.0
2014-Oct-20 09:27N 54°39' E 019°49'0 0.0
2014-Oct-20 08:33N 54°39' E 019°49'0 0.0
2014-Oct-20 07:33N 54°39' E 019°49'6 6.4
2014-Oct-20 06:33N 54°43' E 019°40'10 9.7
2014-Oct-20 05:33N 54°52' E 019°34'1010.3
2014-Oct-20 04:33N 55°02' E 019°35'1110.4
2014-Oct-20 03:30N 55°13' E 019°36'  
2014-Oct-14 04:31N 57°29' E 017°49'1212.8
2014-Oct-14 03:33N 57°18' E 017°39'1312.7
2014-Oct-14 02:33N 57°06' E 017°31'7412.0
2014-Oct-13 20:23N 55°59' E 016°33'1012.3
2014-Oct-13 19:33N 55°54' E 016°17'2912.1
2014-Oct-13 17:11N 55°40' E 015°32'812.2
2014-Oct-13 16:32N 55°36' E 015°20'1212.2
2014-Oct-13 15:33N 55°31' E 015°01'1312.5
2014-Oct-13 14:33N 55°25' E 014°41'1212.3
2014-Oct-13 13:33N 55°16' E 014°28'1312.5
2014-Oct-13 12:33N 55°06' E 014°14'6812.4
2014-Oct-13 07:05N 54°39' E 012°26'712.5
2014-Oct-13 06:34N 54°35' E 012°16'1212.0
2014-Oct-13 05:32N 54°25' E 012°06'1312.5
2014-Oct-13 04:29N 54°25' E 011°44'2512.8
2014-Oct-13 02:31N 54°35' E 011°04'1313.1
2014-Oct-13 01:33N 54°34' E 010°42'1312.6
2014-Oct-13 00:33N 54°30' E 010°21'1010.5
2014-Oct-12 23:33N 54°22' E 010°10'2 1.9
2014-Oct-12 22:33N 54°22' E 010°07'6 5.5
2014-Oct-12 21:25N 54°20' E 009°57'4 4.8
2014-Oct-12 20:33N 54°22' E 009°50'7 5.1
2014-Oct-12 19:10N 54°18' E 009°40'4 5.0
2014-Oct-12 18:25N 54°14' E 009°37'5 5.8
2014-Oct-12 17:31N 54°11' E 009°30'13 6.5
2014-Oct-12 15:33N 54°01' E 009°18'8 8.3
2014-Oct-12 14:33N 53°54' E 009°09'2 2.2
2014-Oct-12 13:33N 53°53' E 009°06'1111.1
2014-Oct-12 12:34N 53°50' E 008°48'1514.7
2014-Oct-12 11:33N 53°59' E 008°27'1312.6
2014-Oct-12 10:33N 53°59' E 008°06'1414.5
2014-Oct-12 09:33N 53°56' E 007°42'1414.1
2014-Oct-12 08:33N 53°53' E 007°18'1313.4
2014-Oct-12 07:33N 53°50' E 006°56'1212.6
2014-Oct-12 06:33N 53°47' E 006°35'1212.3
2014-Oct-12 05:33N 53°44' E 006°15'1212.3
2014-Oct-12 04:33N 53°40' E 005°56'1212.2
2014-Oct-12 03:33N 53°36' E 005°36'1211.9
2014-Oct-12 02:33N 53°32' E 005°17'1212.4
2014-Oct-12 01:33N 53°28' E 004°57'1211.7
2014-Oct-12 00:33N 53°22' E 004°41'1312.5
2014-Oct-11 23:29N 53°10' E 004°31'1112.4
2014-Oct-11 22:33N 53°00' E 004°21'1212.4
2014-Oct-11 21:33N 52°49' E 004°12'1312.8
2014-Oct-11 20:33N 52°39' E 003°59'1413.5
2014-Oct-11 19:32N 52°29' E 003°43'6114.6
2014-Oct-11 15:21N 51°45' E 002°34'1315.4
2014-Oct-11 14:31N 51°35' E 002°20'1515.3
2014-Oct-11 13:34N 51°24' E 002°05'1515.1
2014-Oct-11 12:34N 51°13' E 001°49'1414.3
2014-Oct-11 11:33N 51°02' E 001°35'1313.1
2014-Oct-11 10:33N 50°50' E 001°25'1212.3
2014-Oct-11 09:33N 50°39' E 001°15'1313.0
2014-Oct-11 08:33N 50°31' E 000°60'1312.8
2014-Oct-11 07:33N 50°27' E 000°41'1212.3
2014-Oct-11 06:33N 50°23' E 000°22'  
Track history (hours):
 
Tides and Currents Weather Stations Pressure Air Temp Water Temp Dewpoint Dewpoint Depression Visibility Wind Speed Wind Dir Waves Ship Positions

Celine

Last reported at 2014-Oct-21 03:31 UTC. Time now 2014-Oct-21 03:56 UTC.
Position N 54°38' E 019°55'.

Length 129 m; draft 4.9 m.

Type: Cargo ship. MMSI: 269057000.

Date/timePositionNaut miles runAvg speedWind from/ knotsBaromVisibWave heightAir tempDewpointWater temp
2014-Oct-21 03:31N 54°38' E 019°55'0 0.0
2014-Oct-21 02:31N 54°38' E 019°55'0 0.0
2014-Oct-21 01:31N 54°38' E 019°55'0 0.0
2014-Oct-21 00:28N 54°38' E 019°55'0 0.0
2014-Oct-20 23:31N 54°38' E 019°55'0 0.0
2014-Oct-20 22:31N 54°38' E 019°55'0 0.0
2014-Oct-20 21:30N 54°38' E 019°55'0 0.0
2014-Oct-20 20:31N 54°38' E 019°55'2 1.8
2014-Oct-20 19:09N 54°39' E 019°51'2 3.1
2014-Oct-20 18:29N 54°40' E 019°48'1 0.7
2014-Oct-20 17:33N 54°39' E 019°49'0 0.0
2014-Oct-20 16:33N 54°39' E 019°49'0 0.0
2014-Oct-20 15:33N 54°39' E 019°49'0 0.0
2014-Oct-20 14:33N 54°39' E 019°49'0 0.1
2014-Oct-20 13:33N 54°39' E 019°49'0 0.0
2014-Oct-20 12:27N 54°39' E 019°49'0 0.1
2014-Oct-20 11:33N 54°39' E 019°49'0 0.0
2014-Oct-20 10:33N 54°39' E 019°49'0 0.0
2014-Oct-20 09:27N 54°39' E 019°49'0 0.0
2014-Oct-20 08:33N 54°39' E 019°49'0 0.0
2014-Oct-20 07:33N 54°39' E 019°49'6 6.4
2014-Oct-20 06:33N 54°43' E 019°40'10 9.7
2014-Oct-20 05:33N 54°52' E 019°34'1010.3
2014-Oct-20 04:33N 55°02' E 019°35'1110.4
2014-Oct-20 03:30N 55°13' E 019°36'  
2014-Oct-14 04:31N 57°29' E 017°49'1212.8
2014-Oct-14 03:33N 57°18' E 017°39'1312.7
2014-Oct-14 02:33N 57°06' E 017°31'7412.0
2014-Oct-13 20:23N 55°59' E 016°33'1012.3
2014-Oct-13 19:33N 55°54' E 016°17'2912.1
2014-Oct-13 17:11N 55°40' E 015°32'812.2
2014-Oct-13 16:32N 55°36' E 015°20'1212.2
2014-Oct-13 15:33N 55°31' E 015°01'1312.5
2014-Oct-13 14:33N 55°25' E 014°41'1212.3
2014-Oct-13 13:33N 55°16' E 014°28'1312.5
2014-Oct-13 12:33N 55°06' E 014°14'6812.4
2014-Oct-13 07:05N 54°39' E 012°26'712.5
2014-Oct-13 06:34N 54°35' E 012°16'1212.0
2014-Oct-13 05:32N 54°25' E 012°06'1312.5
2014-Oct-13 04:29N 54°25' E 011°44'2512.8
2014-Oct-13 02:31N 54°35' E 011°04'1313.1
2014-Oct-13 01:33N 54°34' E 010°42'1312.6
2014-Oct-13 00:33N 54°30' E 010°21'1010.5
2014-Oct-12 23:33N 54°22' E 010°10'2 1.9
2014-Oct-12 22:33N 54°22' E 010°07'6 5.5
2014-Oct-12 21:25N 54°20' E 009°57'4 4.8
2014-Oct-12 20:33N 54°22' E 009°50'7 5.1
2014-Oct-12 19:10N 54°18' E 009°40'4 5.0
2014-Oct-12 18:25N 54°14' E 009°37'5 5.8
2014-Oct-12 17:31N 54°11' E 009°30'13 6.5
2014-Oct-12 15:33N 54°01' E 009°18'8 8.3
2014-Oct-12 14:33N 53°54' E 009°09'2 2.2
2014-Oct-12 13:33N 53°53' E 009°06'1111.1
2014-Oct-12 12:34N 53°50' E 008°48'1514.7
2014-Oct-12 11:33N 53°59' E 008°27'1312.6
2014-Oct-12 10:33N 53°59' E 008°06'1414.5
2014-Oct-12 09:33N 53°56' E 007°42'1414.1
2014-Oct-12 08:33N 53°53' E 007°18'1313.4
2014-Oct-12 07:33N 53°50' E 006°56'1212.6
2014-Oct-12 06:33N 53°47' E 006°35'1212.3
2014-Oct-12 05:33N 53°44' E 006°15'1212.3
2014-Oct-12 04:33N 53°40' E 005°56'1212.2
2014-Oct-12 03:33N 53°36' E 005°36'1211.9
2014-Oct-12 02:33N 53°32' E 005°17'1212.4
2014-Oct-12 01:33N 53°28' E 004°57'1211.7
2014-Oct-12 00:33N 53°22' E 004°41'1312.5
2014-Oct-11 23:29N 53°10' E 004°31'1112.4
2014-Oct-11 22:33N 53°00' E 004°21'1212.4
2014-Oct-11 21:33N 52°49' E 004°12'1312.8
2014-Oct-11 20:33N 52°39' E 003°59'1413.5
2014-Oct-11 19:32N 52°29' E 003°43'6114.6
2014-Oct-11 15:21N 51°45' E 002°34'1315.4
2014-Oct-11 14:31N 51°35' E 002°20'1515.3
2014-Oct-11 13:34N 51°24' E 002°05'1515.1
2014-Oct-11 12:34N 51°13' E 001°49'1414.3
2014-Oct-11 11:33N 51°02' E 001°35'1313.1
2014-Oct-11 10:33N 50°50' E 001°25'1212.3
2014-Oct-11 09:33N 50°39' E 001°15'1313.0
2014-Oct-11 08:33N 50°31' E 000°60'1312.8
2014-Oct-11 07:33N 50°27' E 000°41'1212.3
2014-Oct-11 06:33N 50°23' E 000°22'  

Dump ship's entire track history